Time;durP1;ratioP1;P1;durP2;ratioP2;P2;SDS_P1;SDS_P2;PMS_P1;PMS_P2;Temp;Humidity;BMP_temperature;BMP_pressure;BME280_temperature;BME280_humidity;BME280_pressure;Samples;Min_cycle;Max_cycle;Signal;HPM_P1;HPM_P2
2022/04/25 00:02:05;;;;;;;;;;;;;;;;;;5079959;28;19920;-79
2022/04/25 00:04:31;;;;;;;;;;;;;;;;;;5080211;28;19920;-79
2022/04/25 00:06:56;;;;;;;;;;;;;;;;;;5079118;28;19920;-79
2022/04/25 00:09:21;;;;;;;;;;;;;;;;;;5078868;28;19946;-79
2022/04/25 00:11:46;;;;;;;;;;;;;;;;;;5079025;28;19921;-79
2022/04/25 00:14:14;;;;;;;;;;;;;;;;;;5078781;28;19916;-79
2022/04/25 00:16:39;;;;;;;;;;;;;;;;;;5078881;28;19923;-80
2022/04/25 00:19:05;;;;;;;;;;;;;;;;;;5078495;28;19916;-79
2022/04/25 00:21:30;;;;;;;;;;;;;;;;;;5076836;28;19939;-79
2022/04/25 00:23:55;;;;;;;;;;;;;;;;;;5078081;28;20477;-79
2022/04/25 00:26:21;;;;;;;;;;;;;;;;;;5077849;28;19928;-80
2022/04/25 00:28:46;;;;;;;;;;;;;;;;;;5078876;28;20379;-79
2022/04/25 00:31:13;;;;;;;;;;;;;;;;;;5084025;28;19939;-79
2022/04/25 00:33:39;;;;;;;;;;;;;;;;;;5099511;28;20068;-80
2022/04/25 00:36:04;;;;;;;;;;;;;;;;;;5098900;28;19981;-79
2022/04/25 00:38:29;;;;;;;;;;;;;;;;;;5098980;28;19916;-79
2022/04/25 00:40:55;;;;;;;;;;;;;;;;;;5097981;28;20007;-79
2022/04/25 00:43:20;;;;;;;;;;;;;;;;;;5097495;28;19963;-79
2022/04/25 00:45:46;;;;;;;;;;;;;;;;;;5096958;28;20008;-79
2022/04/25 00:48:11;;;;;;;;;;;;;;;;;;5097716;28;19916;-79
2022/04/25 00:50:38;;;;;;;;;;;;;;;;;;5097462;28;19966;-80
2022/04/25 00:53:04;;;;;;;;;;;;;;;;;;5097597;28;19916;-79
2022/04/25 00:55:30;;;;;;;;;;;;;;;;;;5097263;28;19938;-80
2022/04/25 00:57:56;;;;;;;;;;;;;;;;;;5096129;28;19920;-80
2022/04/25 01:00:22;;;;;;;;;;;;;;;;;;5095427;28;20298;-80
2022/04/25 01:02:47;;;;;;;;;;;;;;;;;;5076686;28;19920;-80
2022/04/25 01:05:13;;;;;;;;;;;;;;;;;;5081347;28;20054;-81
2022/04/25 01:07:38;;;;;;;;;;;;;;;;;;5079645;28;19917;-81
2022/04/25 01:10:07;;;;;;;;;;;;;;;;;;5080348;28;19920;-83
2022/04/25 01:12:33;;;;;;;;;;;;;;;;;;5079957;28;19923;-82
2022/04/25 01:15:03;;;;;;;;;;;;;;;;;;5079256;28;19913;-81
2022/04/25 01:17:28;;;;;;;;;;;;;;;;;;5079483;28;19917;-80
2022/04/25 01:19:54;;;;;;;;;;;;;;;;;;5077169;28;19921;-81
2022/04/25 01:22:22;;;;;;;;;;;;;;;;;;5078330;28;19924;-81
2022/04/25 01:27:32;;;;;;;;;;;;;;;;;;5078504;28;19944;-80
2022/04/25 01:29:58;;;;;;;;;;;;;;;;;;5079018;28;19920;-80
2022/04/25 01:32:24;;;;;;;;;;;;;;;;;;5092305;28;19923;-81
2022/04/25 01:34:49;;;;;;;;;;;;;;;;;;5096702;28;19916;-80
2022/04/25 01:37:16;;;;;;;;;;;;;;;;;;5099028;28;20289;-80
2022/04/25 01:39:48;;;;;;;;;;;;;;;;;;5098735;28;20019;-81
2022/04/25 01:42:14;;;;;;;;;;;;;;;;;;5098605;28;19938;-80
2022/04/25 01:44:42;;;;;;;;;;;;;;;;;;5098485;28;19920;-79
2022/04/25 01:47:08;;;;;;;;;;;;;;;;;;5098448;28;20574;-80
2022/04/25 01:49:34;;;;;;;;;;;;;;;;;;5097058;28;19916;-82
2022/04/25 01:52:14;;;;;;;;;;;;;;;;;;5096463;28;19976;-80
2022/04/25 01:54:39;;;;;;;;;;;;;;;;;;5096037;28;19923;-80
2022/04/25 01:57:05;;;;;;;;;;;;;;;;;;5096103;28;20374;-82
2022/04/25 01:59:30;;;;;;;;;;;;;;;;;;5096350;28;20058;-80
2022/04/25 02:01:56;;;;;;;;;;;;;;;;;;5098006;28;19923;-79
2022/04/25 02:04:21;;;;;;;;;;;;;;;;;;5094652;28;19920;-82
2022/04/25 02:06:47;;;;;;;;;;;;;;;;;;5095355;28;19939;-82
2022/04/25 02:09:12;;;;;;;;;;;;;;;;;;5096136;28;19924;-80
2022/04/25 02:11:38;;;;;;;;;;;;;;;;;;5096031;28;19916;-79
2022/04/25 02:14:04;;;;;;;;;;;;;;;;;;5095966;28;19938;-82
2022/04/25 02:16:29;;;;;;;;;;;;;;;;;;5097261;28;19916;-80
2022/04/25 02:18:55;;;;;;;;;;;;;;;;;;5092821;28;20022;-78
2022/04/25 02:21:20;;;;;;;;;;;;;;;;;;5091817;28;20515;-77
2022/04/25 02:23:46;;;;;;;;;;;;;;;;;;5091965;28;19942;-77
2022/04/25 02:26:12;;;;;;;;;;;;;;;;;;5093404;28;19916;-76
2022/04/25 02:28:37;;;;;;;;;;;;;;;;;;5094148;28;20631;-78
2022/04/25 02:31:04;;;;;;;;;;;;;;;;;;5093052;28;19924;-77
2022/04/25 02:33:29;;;;;;;;;;;;;;;;;;5094252;28;19923;-78
2022/04/25 02:35:55;;;;;;;;;;;;;;;;;;5095942;28;19916;-79
2022/04/25 02:38:20;;;;;;;;;;;;;;;;;;5096494;28;20366;-80
2022/04/25 02:40:46;;;;;;;;;;;;;;;;;;5096406;28;20011;-79
2022/04/25 02:43:11;;;;;;;;;;;;;;;;;;5097245;28;19916;-79
2022/04/25 02:45:36;;;;;;;;;;;;;;;;;;5094448;28;19920;-78
2022/04/25 02:48:02;;;;;;;;;;;;;;;;;;5092201;28;19922;-78
2022/04/25 02:50:27;;;;;;;;;;;;;;;;;;5092334;28;19978;-79
2022/04/25 02:52:53;;;;;;;;;;;;;;;;;;5093199;28;19916;-79
2022/04/25 02:55:19;;;;;;;;;;;;;;;;;;5092424;28;19916;-79
2022/04/25 02:57:44;;;;;;;;;;;;;;;;;;5091209;28;19920;-77
2022/04/25 03:00:10;;;;;;;;;;;;;;;;;;5078736;28;19924;-77
2022/04/25 03:02:36;;;;;;;;;;;;;;;;;;5083857;28;19966;-79
2022/04/25 03:05:01;;;;;;;;;;;;;;;;;;5081730;28;19952;-79
2022/04/25 03:07:27;;;;;;;;;;;;;;;;;;5073213;28;19920;-78
2022/04/25 03:09:52;;;;;;;;;;;;;;;;;;5075757;28;19920;-77
2022/04/25 03:12:18;;;;;;;;;;;;;;;;;;5077120;28;19962;-77
2022/04/25 03:14:44;;;;;;;;;;;;;;;;;;5077189;28;19970;-77
2022/04/25 03:17:11;;;;;;;;;;;;;;;;;;5075348;28;19917;-79
2022/04/25 03:19:37;;;;;;;;;;;;;;;;;;5077117;28;20267;-79
2022/04/25 03:22:03;;;;;;;;;;;;;;;;;;5077032;28;19916;-77
2022/04/25 03:24:30;;;;;;;;;;;;;;;;;;5076703;28;19943;-77
2022/04/25 03:26:55;;;;;;;;;;;;;;;;;;5076546;28;19920;-78
2022/04/25 03:29:21;;;;;;;;;;;;;;;;;;5075668;28;20392;-77
2022/04/25 03:31:46;;;;;;;;;;;;;;;;;;5065760;28;19913;-77
2022/04/25 03:34:11;;;;;;;;;;;;;;;;;;5076840;28;19917;-78
2022/04/25 03:36:37;;;;;;;;;;;;;;;;;;5075145;28;19921;-77
2022/04/25 03:39:03;;;;;;;;;;;;;;;;;;5076664;28;19913;-77
2022/04/25 03:41:31;;;;;;;;;;;;;;;;;;5076783;28;19916;-77
2022/04/25 03:43:56;;;;;;;;;;;;;;;;;;5076696;28;20374;-77
2022/04/25 03:46:21;;;;;;;;;;;;;;;;;;5075340;28;19917;-78
2022/04/25 03:48:47;;;;;;;;;;;;;;;;;;5074871;28;19982;-79
2022/04/25 03:51:12;;;;;;;;;;;;;;;;;;5075043;28;19916;-77
2022/04/25 03:53:38;;;;;;;;;;;;;;;;;;5073765;28;19927;-79
2022/04/25 03:58:48;;;;;;;;;;;;;;;;;;5074528;28;19924;-77
2022/04/25 04:01:13;;;;;;;;;;;;;;;;;;5074675;28;19947;-79
2022/04/25 04:03:39;;;;;;;;;;;;;;;;;;5075384;28;19925;-77
2022/04/25 04:06:04;;;;;;;;;;;;;;;;;;5076857;28;19923;-77
2022/04/25 04:08:30;;;;;;;;;;;;;;;;;;5076585;28;20313;-78
2022/04/25 04:10:55;;;;;;;;;;;;;;;;;;5090834;28;19923;-77
2022/04/25 04:13:21;;;;;;;;;;;;;;;;;;5096639;28;19994;-77
2022/04/25 04:15:46;;;;;;;;;;;;;;;;;;5095164;28;19916;-77
2022/04/25 04:18:11;;;;;;;;;;;;;;;;;;5095939;28;20006;-78
2022/04/25 04:20:37;;;;;;;;;;;;;;;;;;5094054;28;20273;-77
2022/04/25 04:23:03;;;;;;;;;;;;;;;;;;5095995;28;20270;-77
2022/04/25 04:25:28;;;;;;;;;;;;;;;;;;5094939;28;20032;-77
2022/04/25 04:27:53;;;;;;;;;;;;;;;;;;5094859;28;19916;-79
2022/04/25 04:30:19;;;;;;;;;;;;;;;;;;5092432;28;19924;-77
2022/04/25 04:32:44;;;;;;;;;;;;;;;;;;5075693;28;20444;-77
2022/04/25 04:35:10;;;;;;;;;;;;;;;;;;5091196;28;20082;-77
2022/04/25 04:37:37;;;;;;;;;;;;;;;;;;5074025;28;20294;-77
2022/04/25 04:42:46;;;;;;;;;;;;;;;;;;5075712;28;19916;-79
2022/04/25 04:45:12;;;;;;;;;;;;;;;;;;5074910;28;19928;-77
2022/04/25 04:47:38;;;;;;;;;;;;;;;;;;5076263;28;20369;-77
2022/04/25 04:50:04;;;;;;;;;;;;;;;;;;5076657;28;19960;-77
2022/04/25 04:52:30;;;;;;;;;;;;;;;;;;5075890;28;19924;-77
2022/04/25 04:54:55;;;;;;;;;;;;;;;;;;5076135;28;19917;-77
2022/04/25 04:57:20;;;;;;;;;;;;;;;;;;5075412;28;19920;-77
2022/04/25 04:59:46;;;;;;;;;;;;;;;;;;5076421;28;19993;-78
2022/04/25 05:02:11;;;;;;;;;;;;;;;;;;5076693;28;19916;-77
2022/04/25 05:04:38;;;;;;;;;;;;;;;;;;5093794;28;19923;-79
2022/04/25 05:07:04;;;;;;;;;;;;;;;;;;5096053;28;19922;-79
2022/04/25 05:09:29;;;;;;;;;;;;;;;;;;5097560;28;20015;-78
2022/04/25 05:11:55;;;;;;;;;;;;;;;;;;5096955;28;20400;-78
2022/04/25 05:14:20;;;;;;;;;;;;;;;;;;5097105;28;19916;-79
2022/04/25 05:16:45;;;;;;;;;;;;;;;;;;5085946;28;20378;-78
2022/04/25 05:19:11;;;;;;;;;;;;;;;;;;5077597;28;19916;-78
2022/04/25 05:21:38;;;;;;;;;;;;;;;;;;5088309;28;19916;-78
2022/04/25 05:24:06;;;;;;;;;;;;;;;;;;5088063;28;19924;-78
2022/04/25 05:26:32;;;;;;;;;;;;;;;;;;5091498;28;19939;-79
2022/04/25 05:28:57;;;;;;;;;;;;;;;;;;5098823;28;19919;-78
2022/04/25 05:31:23;;;;;;;;;;;;;;;;;;5091153;28;19916;-78
2022/04/25 05:33:48;;;;;;;;;;;;;;;;;;5076423;28;19917;-77
2022/04/25 05:36:14;;;;;;;;;;;;;;;;;;5074409;28;19967;-80
2022/04/25 05:38:39;;;;;;;;;;;;;;;;;;5076190;28;19916;-78
2022/04/25 05:41:05;;;;;;;;;;;;;;;;;;5077048;28;19916;-77
2022/04/25 05:43:30;;;;;;;;;;;;;;;;;;5077873;28;19923;-78
2022/04/25 05:45:55;;;;;;;;;;;;;;;;;;5076553;28;20344;-77
2022/04/25 05:53:49;;;;;;;;;;;;;;;;;;5076110;28;19925;-78
2022/04/25 05:56:15;;;;;;;;;;;;;;;;;;5078609;28;19916;-78
2022/04/25 05:58:40;;;;;;;;;;;;;;;;;;5075210;28;19927;-81
2022/04/25 06:01:06;;;;;;;;;;;;;;;;;;5077838;28;19916;-79
2022/04/25 06:03:31;;;;;;;;;;;;;;;;;;5077376;28;20017;-81
2022/04/25 06:05:56;;;;;;;;;;;;;;;;;;5076653;28;19920;-79
2022/04/25 06:08:21;;;;;;;;;;;;;;;;;;5076451;28;20390;-79
2022/04/25 06:10:47;;;;;;;;;;;;;;;;;;5074846;28;19969;-78
2022/04/25 06:13:13;;;;;;;;;;;;;;;;;;5073986;28;19916;-78
2022/04/25 06:15:38;;;;;;;;;;;;;;;;;;5075958;28;19919;-79
2022/04/25 06:18:04;;;;;;;;;;;;;;;;;;5076497;28;19959;-78
2022/04/25 06:20:30;;;;;;;;;;;;;;;;;;5076555;28;20026;-81
2022/04/25 06:23:02;;;;;;;;;;;;;;;;;;5075310;28;19916;-78
2022/04/25 06:25:29;;;;;;;;;;;;;;;;;;5075799;28;19921;-78
2022/04/25 06:27:55;;;;;;;;;;;;;;;;;;5075143;28;20283;-79
2022/04/25 06:30:28;;;;;;;;;;;;;;;;;;5075730;28;19923;-78
2022/04/25 06:32:54;;;;;;;;;;;;;;;;;;5075618;28;19916;-77
2022/04/25 06:35:20;;;;;;;;;;;;;;;;;;5075218;28;20408;-78
2022/04/25 06:37:49;;;;;;;;;;;;;;;;;;5073382;28;20399;-77
2022/04/25 06:40:14;;;;;;;;;;;;;;;;;;5073947;28;19916;-79
2022/04/25 06:42:40;;;;;;;;;;;;;;;;;;5075790;28;19917;-78
2022/04/25 06:45:05;;;;;;;;;;;;;;;;;;5076580;28;19967;-79
2022/04/25 06:47:31;;;;;;;;;;;;;;;;;;5077362;28;20109;-77
2022/04/25 06:49:56;;;;;;;;;;;;;;;;;;5077452;28;20392;-77
2022/04/25 06:52:21;;;;;;;;;;;;;;;;;;5076975;28;20298;-77
2022/04/25 06:54:46;;;;;;;;;;;;;;;;;;5076481;28;19923;-78
2022/04/25 06:57:12;;;;;;;;;;;;;;;;;;5075840;28;19928;-79
2022/04/25 06:59:38;;;;;;;;;;;;;;;;;;5077228;28;20293;-78
2022/04/25 07:02:03;;;;;;;;;;;;;;;;;;5088700;28;19923;-80
2022/04/25 07:04:29;;;;;;;;;;;;;;;;;;5105213;28;19920;-82
2022/04/25 07:06:54;;;;;;;;;;;;;;;;;;5115533;28;20289;-79
2022/04/25 07:09:19;;;;;;;;;;;;;;;;;;5116806;28;19959;-77
2022/04/25 07:11:45;;;;;;;;;;;;;;;;;;5120428;28;19916;-78
2022/04/25 07:14:12;;;;;;;;;;;;;;;;;;5119801;28;20347;-77
2022/04/25 07:16:38;;;;;;;;;;;;;;;;;;5118188;28;19945;-77
2022/04/25 07:19:03;;;;;;;;;;;;;;;;;;5117233;28;20422;-78
2022/04/25 07:29:48;;;;;;;;;;;;;;;;;;5120778;28;19969;-81
2022/04/25 07:32:17;;;;;;;;;;;;;;;;;;5123160;28;19915;-80
2022/04/25 07:34:48;;;;;;;;;;;;;;;;;;5108096;28;19941;-77
2022/04/25 07:37:17;;;;;;;;;;;;;;;;;;5082410;28;20374;-77
2022/04/25 07:39:42;;;;;;;;;;;;;;;;;;5077041;28;19916;-77
2022/04/25 07:42:08;;;;;;;;;;;;;;;;;;5077049;28;20442;-77
2022/04/25 07:44:33;;;;;;;;;;;;;;;;;;5077565;28;19920;-77
2022/04/25 07:46:59;;;;;;;;;;;;;;;;;;5076319;28;19958;-77
2022/04/25 07:49:25;;;;;;;;;;;;;;;;;;5077757;28;19916;-78
2022/04/25 07:51:50;;;;;;;;;;;;;;;;;;5078206;28;20015;-77
2022/04/25 07:54:16;;;;;;;;;;;;;;;;;;5093773;28;19952;-77
2022/04/25 07:56:42;;;;;;;;;;;;;;;;;;5075853;28;20004;-78
2022/04/25 07:59:11;;;;;;;;;;;;;;;;;;5080444;28;19952;-80
2022/04/25 08:01:36;;;;;;;;;;;;;;;;;;5082350;28;19923;-80
2022/04/25 08:04:02;;;;;;;;;;;;;;;;;;5079671;28;20345;-80
2022/04/25 08:06:27;;;;;;;;;;;;;;;;;;5078748;28;19965;-77
2022/04/25 08:08:53;;;;;;;;;;;;;;;;;;5079212;28;20054;-79
2022/04/25 08:11:19;;;;;;;;;;;;;;;;;;5079521;28;20279;-80
2022/04/25 08:19:15;;;;;;;;;;;;;;;;;;5078668;28;20037;-81
2022/04/25 08:21:44;;;;;;;;;;;;;;;;;;5078008;28;20003;-80
2022/04/25 08:24:10;;;;;;;;;;;;;;;;;;5078262;28;20012;-81
2022/04/25 08:26:36;;;;;;;;;;;;;;;;;;5076536;28;19916;-79
2022/04/25 08:29:01;;;;;;;;;;;;;;;;;;5079344;28;19960;-79
2022/04/25 08:31:27;;;;;;;;;;;;;;;;;;5078179;28;19956;-77
2022/04/25 08:33:53;;;;;;;;;;;;;;;;;;5078553;28;19923;-78
2022/04/25 08:36:18;;;;;;;;;;;;;;;;;;5077710;28;19917;-79
2022/04/25 08:38:47;;;;;;;;;;;;;;;;;;5078801;28;19939;-79
2022/04/25 08:41:16;;;;;;;;;;;;;;;;;;5078935;28;19917;-81
2022/04/25 08:43:42;;;;;;;;;;;;;;;;;;5078510;28;19923;-81
2022/04/25 08:46:09;;;;;;;;;;;;;;;;;;5079952;28;20382;-81
2022/04/25 08:48:35;;;;;;;;;;;;;;;;;;5078426;28;19916;-81
2022/04/25 08:51:00;;;;;;;;;;;;;;;;;;5077466;28;19916;-81
2022/04/25 08:53:26;;;;;;;;;;;;;;;;;;5077134;28;20003;-82
2022/04/25 08:55:53;;;;;;;;;;;;;;;;;;5079524;28;19963;-82
2022/04/25 08:58:19;;;;;;;;;;;;;;;;;;5081212;28;19920;-83
2022/04/25 09:00:45;;;;;;;;;;;;;;;;;;5086638;28;19924;-83
2022/04/25 09:03:12;;;;;;;;;;;;;;;;;;5121265;28;19915;-82
2022/04/25 09:05:38;;;;;;;;;;;;;;;;;;5121413;28;19920;-82
2022/04/25 09:08:04;;;;;;;;;;;;;;;;;;5120934;28;19915;-81
2022/04/25 09:10:29;;;;;;;;;;;;;;;;;;5120806;28;19960;-81
2022/04/25 09:12:55;;;;;;;;;;;;;;;;;;5119877;28;20292;-81
2022/04/25 09:15:22;;;;;;;;;;;;;;;;;;5120718;28;20383;-80
2022/04/25 09:17:47;;;;;;;;;;;;;;;;;;5119432;28;19916;-81
2022/04/25 09:20:13;;;;;;;;;;;;;;;;;;5120055;28;19977;-80
2022/04/25 09:22:42;;;;;;;;;;;;;;;;;;5120312;28;19915;-81
2022/04/25 09:25:09;;;;;;;;;;;;;;;;;;5118374;28;19931;-80
2022/04/25 09:27:34;;;;;;;;;;;;;;;;;;5118411;28;19915;-81
2022/04/25 09:30:12;;;;;;;;;;;;;;;;;;5118943;27;20486;-80
2022/04/25 09:32:37;;;;;;;;;;;;;;;;;;5101167;28;19922;-81
2022/04/25 09:35:21;;;;;;;;;;;;;;;;;;5100492;28;19984;-82
2022/04/25 09:37:48;;;;;;;;;;;;;;;;;;5101625;28;19922;-82
2022/04/25 09:40:17;;;;;;;;;;;;;;;;;;5101735;28;19920;-80
2022/04/25 09:42:43;;;;;;;;;;;;;;;;;;5100447;28;19962;-80
2022/04/25 09:45:09;;;;;;;;;;;;;;;;;;5102237;28;19924;-82
2022/04/25 09:47:36;;;;;;;;;;;;;;;;;;5103229;28;19982;-84
2022/04/25 09:50:12;;;;;;;;;;;;;;;;;;5104039;28;19923;-86
2022/04/25 09:52:56;;;;;;;;;;;;;;;;;;5104183;28;19991;-83
2022/04/25 09:55:22;;;;;;;;;;;;;;;;;;5094358;28;19916;-83
2022/04/25 09:57:51;;;;;;;;;;;;;;;;;;5099151;28;19926;-82
2022/04/25 10:00:28;;;;;;;;;;;;;;;;;;5097154;28;20421;-83
2022/04/25 10:02:53;;;;;;;;;;;;;;;;;;5099259;28;19931;-81
2022/04/25 10:05:20;;;;;;;;;;;;;;;;;;5095121;28;21575;-82
2022/04/25 10:07:45;;;;;;;;;;;;;;;;;;5093357;28;19984;-82
2022/04/25 10:10:11;;;;;;;;;;;;;;;;;;5086524;28;19924;-82
2022/04/25 10:12:37;;;;;;;;;;;;;;;;;;5091219;28;19920;-82
2022/04/25 10:15:03;;;;;;;;;;;;;;;;;;5095415;28;19916;-79
2022/04/25 10:17:29;;;;;;;;;;;;;;;;;;5099250;28;20416;-79
2022/04/25 10:19:59;;;;;;;;;;;;;;;;;;5097095;28;19920;-80
2022/04/25 10:22:25;;;;;;;;;;;;;;;;;;5096742;28;19938;-81
2022/04/25 10:24:51;;;;;;;;;;;;;;;;;;5098115;28;19959;-79
2022/04/25 10:27:24;;;;;;;;;;;;;;;;;;5099607;28;19916;-85
2022/04/25 10:29:51;;;;;;;;;;;;;;;;;;5104017;28;19915;-80
2022/04/25 10:32:21;;;;;;;;;;;;;;;;;;5109648;28;19965;-78
2022/04/25 10:34:56;;;;;;;;;;;;;;;;;;5099935;28;19915;-79
2022/04/25 10:37:28;;;;;;;;;;;;;;;;;;5119945;28;20293;-82
2022/04/25 10:39:54;;;;;;;;;;;;;;;;;;5121098;28;19916;-82
2022/04/25 10:45:04;;;;;;;;;;;;;;;;;;5111095;28;19921;-84
2022/04/25 10:47:29;;;;;;;;;;;;;;;;;;5102625;28;19919;-84
2022/04/25 10:49:56;;;;;;;;;;;;;;;;;;5096426;28;19943;-85
2022/04/25 10:52:34;;;;;;;;;;;;;;;;;;5097534;28;19962;-84
2022/04/25 10:55:14;;;;;;;;;;;;;;;;;;5104210;28;19923;-84
2022/04/25 10:57:58;;;;;;;;;;;;;;;;;;5099751;28;19920;-85
2022/04/25 11:00:44;;;;;;;;;;;;;;;;;;5096660;28;20450;-85
2022/04/25 11:03:17;;;;;;;;;;;;;;;;;;5081660;28;20006;-85
2022/04/25 11:05:45;;;;;;;;;;;;;;;;;;5081179;28;19987;-85
2022/04/25 11:08:19;;;;;;;;;;;;;;;;;;5080668;28;19923;-84
2022/04/25 11:10:49;;;;;;;;;;;;;;;;;;5082449;28;19916;-84
2022/04/25 11:13:18;;;;;;;;;;;;;;;;;;5081775;28;19917;-84
2022/04/25 11:15:43;;;;;;;;;;;;;;;;;;5082307;28;19966;-84
2022/04/25 11:18:33;;;;;;;;;;;;;;;;;;5081748;28;19962;-84
2022/04/25 11:21:05;;;;;;;;;;;;;;;;;;5081345;28;20452;-84
2022/04/25 11:23:43;;;;;;;;;;;;;;;;;;5080233;28;20334;-84
2022/04/25 11:26:10;;;;;;;;;;;;;;;;;;5082217;28;19925;-83
2022/04/25 11:29:01;;;;;;;;;;;;;;;;;;5063656;28;19944;-83
2022/04/25 11:31:29;;;;;;;;;;;;;;;;;;5083732;28;19917;-83
2022/04/25 11:34:02;;;;;;;;;;;;;;;;;;5090087;28;19922;-83
2022/04/25 11:36:29;;;;;;;;;;;;;;;;;;5104321;28;19920;-83
2022/04/25 11:41:39;;;;;;;;;;;;;;;;;;5103483;28;19983;-84
2022/04/25 11:44:05;;;;;;;;;;;;;;;;;;5103184;28;19976;-84
2022/04/25 11:46:31;;;;;;;;;;;;;;;;;;5104101;28;19913;-84
2022/04/25 11:48:56;;;;;;;;;;;;;;;;;;5102999;28;19971;-84
2022/04/25 11:51:43;;;;;;;;;;;;;;;;;;5102995;28;19912;-84
2022/04/25 11:54:09;;;;;;;;;;;;;;;;;;5101880;28;19920;-84
2022/04/25 11:56:36;;;;;;;;;;;;;;;;;;5100626;28;19916;-85
2022/04/25 11:59:28;;;;;;;;;;;;;;;;;;5085176;28;19924;-85
2022/04/25 12:01:53;;;;;;;;;;;;;;;;;;5102791;28;19916;-86
2022/04/25 12:04:26;;;;;;;;;;;;;;;;;;5095572;28;19946;-86
2022/04/25 12:07:01;;;;;;;;;;;;;;;;;;5082161;28;20271;-85
2022/04/25 12:17:43;;;;;;;;;;;;;;;;;;5100509;28;19948;-85
2022/04/25 12:20:10;;;;;;;;;;;;;;;;;;5100458;28;19924;-85
2022/04/25 12:22:36;;;;;;;;;;;;;;;;;;5102287;28;19917;-85
2022/04/25 12:25:17;;;;;;;;;;;;;;;;;;5101399;28;19916;-85
2022/04/25 12:28:03;;;;;;;;;;;;;;;;;;5101059;28;19951;-85
2022/04/25 12:30:30;;;;;;;;;;;;;;;;;;5101227;28;19920;-85
2022/04/25 12:33:06;;;;;;;;;;;;;;;;;;5097198;28;19973;-84
2022/04/25 12:35:31;;;;;;;;;;;;;;;;;;5076311;28;20074;-81
2022/04/25 12:37:56;;;;;;;;;;;;;;;;;;5079590;28;20014;-84
2022/04/25 12:40:22;;;;;;;;;;;;;;;;;;5080218;28;19924;-82
2022/04/25 12:42:50;;;;;;;;;;;;;;;;;;5080007;28;20091;-81
2022/04/25 12:45:15;;;;;;;;;;;;;;;;;;5080064;28;19920;-79
2022/04/25 12:47:44;;;;;;;;;;;;;;;;;;5080550;28;20345;-79
2022/04/25 12:50:09;;;;;;;;;;;;;;;;;;5080397;28;19924;-80
2022/04/25 12:52:45;;;;;;;;;;;;;;;;;;5080025;28;19917;-79
2022/04/25 12:55:11;;;;;;;;;;;;;;;;;;5080314;28;20062;-79
2022/04/25 12:57:36;;;;;;;;;;;;;;;;;;5079939;28;20023;-79
2022/04/25 13:00:04;;;;;;;;;;;;;;;;;;5079683;28;19920;-79
2022/04/25 13:02:35;;;;;;;;;;;;;;;;;;5099683;28;20003;-79
2022/04/25 13:05:08;;;;;;;;;;;;;;;;;;5098343;28;19920;-81
2022/04/25 13:07:38;;;;;;;;;;;;;;;;;;5096717;28;19965;-82
2022/04/25 13:10:08;;;;;;;;;;;;;;;;;;5098510;28;19928;-80
2022/04/25 13:12:36;;;;;;;;;;;;;;;;;;5101085;28;19916;-80
2022/04/25 13:15:03;;;;;;;;;;;;;;;;;;5101137;28;19916;-82
2022/04/25 13:17:28;;;;;;;;;;;;;;;;;;5100087;28;19931;-81
2022/04/25 13:19:53;;;;;;;;;;;;;;;;;;5098416;28;20025;-83
2022/04/25 13:22:19;;;;;;;;;;;;;;;;;;5100427;28;19923;-80
2022/04/25 13:24:45;;;;;;;;;;;;;;;;;;5098011;28;19970;-81
2022/04/25 13:27:11;;;;;;;;;;;;;;;;;;5098902;28;20019;-82
2022/04/25 13:29:36;;;;;;;;;;;;;;;;;;5097564;28;19952;-75
2022/04/25 13:32:02;;;;;;;;;;;;;;;;;;5094206;28;19942;-77
2022/04/25 13:34:27;;;;;;;;;;;;;;;;;;5093571;28;19915;-77
2022/04/25 13:36:54;;;;;;;;;;;;;;;;;;5094965;28;19955;-77
2022/04/25 13:39:20;;;;;;;;;;;;;;;;;;5095303;28;19916;-77
2022/04/25 13:41:45;;;;;;;;;;;;;;;;;;5095386;28;19923;-78
2022/04/25 13:44:10;;;;;;;;;;;;;;;;;;5096390;28;20014;-77
2022/04/25 13:46:36;;;;;;;;;;;;;;;;;;5093103;28;19981;-76
2022/04/25 13:49:01;;;;;;;;;;;;;;;;;;5076214;28;19923;-77
2022/04/25 13:51:27;;;;;;;;;;;;;;;;;;5097172;28;19951;-77
2022/04/25 13:53:52;;;;;;;;;;;;;;;;;;5094523;28;19922;-77
2022/04/25 13:56:19;;;;;;;;;;;;;;;;;;5094573;28;20401;-76
2022/04/25 13:58:44;;;;;;;;;;;;;;;;;;5094072;28;19920;-77
2022/04/25 14:01:10;;;;;;;;;;;;;;;;;;5094166;28;20411;-76
2022/04/25 14:03:35;;;;;;;;;;;;;;;;;;5094840;28;19916;-77
2022/04/25 14:06:01;;;;;;;;;;;;;;;;;;5095138;28;19956;-76
2022/04/25 14:08:26;;;;;;;;;;;;;;;;;;5094138;28;19916;-77
2022/04/25 14:10:55;;;;;;;;;;;;;;;;;;5094138;28;19923;-76
2022/04/25 14:13:21;;;;;;;;;;;;;;;;;;5093756;28;19916;-76
2022/04/25 14:15:48;;;;;;;;;;;;;;;;;;5093972;28;19916;-77
2022/04/25 14:18:13;;;;;;;;;;;;;;;;;;5092695;28;19916;-76
2022/04/25 14:20:39;;;;;;;;;;;;;;;;;;5094287;28;19939;-76
2022/04/25 14:23:05;;;;;;;;;;;;;;;;;;5094178;28;19920;-75
2022/04/25 14:25:31;;;;;;;;;;;;;;;;;;5094102;28;19916;-76
2022/04/25 14:28:00;;;;;;;;;;;;;;;;;;5093491;28;19962;-75
2022/04/25 14:30:26;;;;;;;;;;;;;;;;;;5094486;28;19920;-75
2022/04/25 14:32:52;;;;;;;;;;;;;;;;;;5093436;28;19920;-76
2022/04/25 14:35:17;;;;;;;;;;;;;;;;;;5093901;28;20427;-76
2022/04/25 14:37:42;;;;;;;;;;;;;;;;;;5093556;28;20507;-76
2022/04/25 14:40:08;;;;;;;;;;;;;;;;;;5093858;28;20348;-76
2022/04/25 14:42:33;;;;;;;;;;;;;;;;;;5093835;28;19969;-76
2022/04/25 14:44:59;;;;;;;;;;;;;;;;;;5093595;28;19924;-74
2022/04/25 14:47:24;;;;;;;;;;;;;;;;;;5095439;28;19937;-79
2022/04/25 14:55:20;;;;;;;;;;;;;;;;;;5077037;28;19992;-79
2022/04/25 14:57:50;;;;;;;;;;;;;;;;;;5076687;28;19988;-78
2022/04/25 15:00:16;;;;;;;;;;;;;;;;;;5076394;28;19924;-80
2022/04/25 15:02:41;;;;;;;;;;;;;;;;;;5079547;28;19917;-79
2022/04/25 15:05:07;;;;;;;;;;;;;;;;;;5079801;28;19929;-80
2022/04/25 15:07:32;;;;;;;;;;;;;;;;;;5083128;28;20328;-80
2022/04/25 15:09:58;;;;;;;;;;;;;;;;;;5082049;28;19921;-81
2022/04/25 15:12:23;;;;;;;;;;;;;;;;;;5081956;28;19939;-79
2022/04/25 15:14:48;;;;;;;;;;;;;;;;;;5081834;28;19916;-79
2022/04/25 15:17:14;;;;;;;;;;;;;;;;;;5081424;28;19916;-79
2022/04/25 15:19:39;;;;;;;;;;;;;;;;;;5081271;28;20005;-80
2022/04/25 15:22:04;;;;;;;;;;;;;;;;;;5081206;28;20015;-80
2022/04/25 15:24:30;;;;;;;;;;;;;;;;;;5080697;28;19920;-79
2022/04/25 15:26:55;;;;;;;;;;;;;;;;;;5079971;28;19917;-79
2022/04/25 15:29:20;;;;;;;;;;;;;;;;;;5080350;28;20417;-77
2022/04/25 15:31:46;;;;;;;;;;;;;;;;;;5082136;28;19920;-78
2022/04/25 15:34:11;;;;;;;;;;;;;;;;;;5100687;28;19916;-78
2022/04/25 15:36:36;;;;;;;;;;;;;;;;;;5100855;28;19954;-79
2022/04/25 15:39:02;;;;;;;;;;;;;;;;;;5100646;28;19916;-79
2022/04/25 15:41:27;;;;;;;;;;;;;;;;;;5100654;28;19923;-78
2022/04/25 15:43:52;;;;;;;;;;;;;;;;;;5099954;28;19916;-79
2022/04/25 15:46:18;;;;;;;;;;;;;;;;;;5098531;28;19920;-79
2022/04/25 15:48:43;;;;;;;;;;;;;;;;;;5099540;28;20726;-79
2022/04/25 15:51:08;;;;;;;;;;;;;;;;;;5098791;28;20003;-78
2022/04/25 15:57:43;;;;;;;;;;;;;;;;;;5099091;28;19916;-78
2022/04/25 15:59:10;;;;;;;;;;;;;;;;;;5099367;28;19920;-78
2022/04/25 16:01:35;;;;;;;;;;;;;;;;;;5100238;28;20284;-78
2022/04/25 16:04:00;;;;;;;;;;;;;;;;;;5096334;28;19916;-78
2022/04/25 16:06:26;;;;;;;;;;;;;;;;;;5078373;28;19913;-80
2022/04/25 16:08:51;;;;;;;;;;;;;;;;;;5078975;28;19916;-79
2022/04/25 16:11:17;;;;;;;;;;;;;;;;;;5078274;28;20302;-79
2022/04/25 16:13:42;;;;;;;;;;;;;;;;;;5077127;28;19916;-78
2022/04/25 16:16:08;;;;;;;;;;;;;;;;;;5077589;28;19970;-78
2022/04/25 16:18:33;;;;;;;;;;;;;;;;;;5077420;28;19916;-79
2022/04/25 16:20:59;;;;;;;;;;;;;;;;;;5077997;28;19920;-81
2022/04/25 16:23:24;;;;;;;;;;;;;;;;;;5080047;28;20007;-80
2022/04/25 16:25:55;;;;;;;;;;;;;;;;;;5081303;28;19920;-79
2022/04/25 16:28:20;;;;;;;;;;;;;;;;;;5079904;28;19920;-81
2022/04/25 16:30:46;;;;;;;;;;;;;;;;;;5081687;28;19941;-80
2022/04/25 16:33:13;;;;;;;;;;;;;;;;;;5099722;28;19916;-80
2022/04/25 16:35:39;;;;;;;;;;;;;;;;;;5101079;28;19920;-80
2022/04/25 16:38:05;;;;;;;;;;;;;;;;;;5100878;28;20351;-80
2022/04/25 16:40:30;;;;;;;;;;;;;;;;;;5099470;28;19963;-81
2022/04/25 16:42:55;;;;;;;;;;;;;;;;;;5100568;28;19951;-79
2022/04/25 16:45:21;;;;;;;;;;;;;;;;;;5100101;28;19955;-83
2022/04/25 16:47:46;;;;;;;;;;;;;;;;;;5100493;28;19962;-80
2022/04/25 16:50:12;;;;;;;;;;;;;;;;;;5099343;28;19935;-78
2022/04/25 16:52:37;;;;;;;;;;;;;;;;;;5099798;28;19968;-79
2022/04/25 16:55:02;;;;;;;;;;;;;;;;;;5098466;28;19923;-78
2022/04/25 16:57:27;;;;;;;;;;;;;;;;;;5097355;28;19924;-79
2022/04/25 16:59:53;;;;;;;;;;;;;;;;;;5095461;28;20263;-76
2022/04/25 17:02:18;;;;;;;;;;;;;;;;;;5094202;28;20010;-77
2022/04/25 17:04:43;;;;;;;;;;;;;;;;;;5093741;28;20005;-78
2022/04/25 17:07:09;;;;;;;;;;;;;;;;;;5094729;28;19912;-77
2022/04/25 17:09:35;;;;;;;;;;;;;;;;;;5094242;28;19916;-77
2022/04/25 17:12:01;;;;;;;;;;;;;;;;;;5100140;28;19916;-77
2022/04/25 17:14:27;;;;;;;;;;;;;;;;;;5093757;28;19915;-76
2022/04/25 17:16:52;;;;;;;;;;;;;;;;;;5094292;28;19916;-77
2022/04/25 17:19:18;;;;;;;;;;;;;;;;;;5093461;28;19920;-76
2022/04/25 17:21:44;;;;;;;;;;;;;;;;;;5093691;28;19916;-77
2022/04/25 17:24:09;;;;;;;;;;;;;;;;;;5098230;28;19967;-78
2022/04/25 17:26:35;;;;;;;;;;;;;;;;;;5099892;28;19923;-78
2022/04/25 17:29:02;;;;;;;;;;;;;;;;;;5094386;28;19916;-76
2022/04/25 17:45:16;;;;;;;;;;;;;;;;;;5094013;28;19989;-76
